sensor_id;sensor_type;location;lat;lon;timestamp;P1;durP1;ratioP1;P2;durP2;ratioP2
2001;SDS011;1003;48.002;7.788;2024-01-10T00:01:49;31.70;;;14.80;;
2001;SDS011;1003;48.002;7.788;2024-01-10T00:04:15;33.23;;;15.33;;
2001;SDS011;1003;48.002;7.788;2024-01-10T00:06:42;31.33;;;14.53;;
2001;SDS011;1003;48.002;7.788;2024-01-10T00:09:11;35.07;;;15.13;;
2001;SDS011;1003;48.002;7.788;2024-01-10T00:11:38;26.93;;;13.57;;
2001;SDS011;1003;48.002;7.788;2024-01-10T00:14:05;31.43;;;14.20;;
2001;SDS011;1003;48.002;7.788;2024-01-10T00:16:32;34.03;;;14.37;;
2001;SDS011;1003;48.002;7.788;2024-01-10T00:18:58;31.07;;;14.73;;
2001;SDS011;1003;48.002;7.788;2024-01-10T00:21:25;31.27;;;14.03;;
2001;SDS011;1003;48.002;7.788;2024-01-10T00:23:54;29.93;;;14.13;;
2001;SDS011;1003;48.002;7.788;2024-01-10T00:26:22;29.57;;;14.00;;
2001;SDS011;1003;48.002;7.788;2024-01-10T00:28:54;29.40;;;14.00;;
2001;SDS011;1003;48.002;7.788;2024-01-10T00:31:21;32.60;;;14.50;;
2001;SDS011;1003;48.002;7.788;2024-01-10T00:33:48;29.70;;;14.67;;
2001;SDS011;1003;48.002;7.788;2024-01-10T00:36:15;33.10;;;15.13;;
2001;SDS011;1003;48.002;7.788;2024-01-10T00:38:42;33.87;;;14.67;;
2001;SDS011;1003;48.002;7.788;2024-01-10T00:41:08;31.30;;;15.43;;
2001;SDS011;1003;48.002;7.788;2024-01-10T00:43:38;30.53;;;14.80;;
2001;SDS011;1003;48.002;7.788;2024-01-10T00:46:05;36.90;;;15.07;;
2001;SDS011;1003;48.002;7.788;2024-01-10T00:48:32;34.50;;;15.37;;
2001;SDS011;1003;48.002;7.788;2024-01-10T00:50:59;37.10;;;15.70;;
2001;SDS011;1003;48.002;7.788;2024-01-10T00:53:26;34.53;;;15.00;;
2001;SDS011;1003;48.002;7.788;2024-01-10T00:55:53;34.07;;;15.63;;
2001;SDS011;1003;48.002;7.788;2024-01-10T00:58:19;32.90;;;14.87;;
2001;SDS011;1003;48.002;7.788;2024-01-10T01:00:48;32.43;;;14.57;;
2001;SDS011;1003;48.002;7.788;2024-01-10T01:03:15;34.77;;;15.43;;
2001;SDS011;1003;48.002;7.788;2024-01-10T01:05:41;32.73;;;15.00;;
2001;SDS011;1003;48.002;7.788;2024-01-10T01:08:08;37.30;;;15.87;;
2001;SDS011;1003;48.002;7.788;2024-01-10T01:10:35;32.47;;;15.47;;
2001;SDS011;1003;48.002;7.788;2024-01-10T01:13:02;36.50;;;15.17;;
2001;SDS011;1003;48.002;7.788;2024-01-10T01:15:29;36.80;;;15.60;;
2001;SDS011;1003;48.002;7.788;2024-01-10T01:17:58;32.93;;;16.13;;
2001;SDS011;1003;48.002;7.788;2024-01-10T01:20:25;33.57;;;14.87;;
2001;SDS011;1003;48.002;7.788;2024-01-10T01:22:51;36.63;;;15.90;;
2001;SDS011;1003;48.002;7.788;2024-01-10T01:25:19;33.20;;;15.17;;
2001;SDS011;1003;48.002;7.788;2024-01-10T01:27:45;37.07;;;15.90;;
2001;SDS011;1003;48.002;7.788;2024-01-10T01:30:12;35.10;;;16.07;;
2001;SDS011;1003;48.002;7.788;2024-01-10T01:32:39;36.23;;;15.40;;
2001;SDS011;1003;48.002;7.788;2024-01-10T01:35:08;34.90;;;16.07;;
2001;SDS011;1003;48.002;7.788;2024-01-10T01:37:35;38.60;;;15.97;;
2001;SDS011;1003;48.002;7.788;2024-01-10T01:40:01;37.23;;;16.60;;
2001;SDS011;1003;48.002;7.788;2024-01-10T01:42:29;35.40;;;15.67;;
2001;SDS011;1003;48.002;7.788;2024-01-10T01:44:57;33.20;;;15.63;;
2001;SDS011;1003;48.002;7.788;2024-01-10T01:47:24;31.53;;;14.73;;
2001;SDS011;1003;48.002;7.788;2024-01-10T01:49:52;32.60;;;14.43;;
2001;SDS011;1003;48.002;7.788;2024-01-10T01:52:20;37.57;;;16.03;;
2001;SDS011;1003;48.002;7.788;2024-01-10T01:54:47;35.60;;;15.33;;
2001;SDS011;1003;48.002;7.788;2024-01-10T01:57:14;32.17;;;14.63;;
2001;SDS011;1003;48.002;7.788;2024-01-10T01:59:41;33.30;;;15.83;;
2001;SDS011;1003;48.002;7.788;2024-01-10T02:02:09;32.63;;;15.73;;
2001;SDS011;1003;48.002;7.788;2024-01-10T02:04:39;34.97;;;14.63;;
2001;SDS011;1003;48.002;7.788;2024-01-10T02:07:06;33.90;;;15.47;;
2001;SDS011;1003;48.002;7.788;2024-01-10T02:09:35;34.07;;;15.33;;
2001;SDS011;1003;48.002;7.788;2024-01-10T02:12:02;32.87;;;14.93;;
2001;SDS011;1003;48.002;7.788;2024-01-10T02:14:30;33.53;;;14.17;;
2001;SDS011;1003;48.002;7.788;2024-01-10T02:16:56;28.37;;;13.70;;
2001;SDS011;1003;48.002;7.788;2024-01-10T02:19:23;33.90;;;15.10;;
2001;SDS011;1003;48.002;7.788;2024-01-10T02:21:51;32.37;;;15.43;;
2001;SDS011;1003;48.002;7.788;2024-01-10T02:24:18;32.63;;;14.70;;
2001;SDS011;1003;48.002;7.788;2024-01-10T02:26:46;32.83;;;15.37;;
2001;SDS011;1003;48.002;7.788;2024-01-10T02:29:15;37.90;;;17.00;;
2001;SDS011;1003;48.002;7.788;2024-01-10T02:31:42;39.00;;;16.33;;
2001;SDS011;1003;48.002;7.788;2024-01-10T02:34:09;34.83;;;16.37;;
2001;SDS011;1003;48.002;7.788;2024-01-10T02:36:36;35.07;;;16.13;;
2001;SDS011;1003;48.002;7.788;2024-01-10T02:39:03;36.67;;;16.37;;
2001;SDS011;1003;48.002;7.788;2024-01-10T02:41:29;39.00;;;17.50;;
2001;SDS011;1003;48.002;7.788;2024-01-10T02:43:58;37.80;;;17.00;;
2001;SDS011;1003;48.002;7.788;2024-01-10T02:46:25;37.17;;;17.40;;
2001;SDS011;1003;48.002;7.788;2024-01-10T02:48:53;34.97;;;16.93;;
2001;SDS011;1003;48.002;7.788;2024-01-10T02:51:21;35.70;;;15.73;;
2001;SDS011;1003;48.002;7.788;2024-01-10T02:53:48;38.70;;;16.53;;
2001;SDS011;1003;48.002;7.788;2024-01-10T02:56:15;34.20;;;15.77;;
2001;SDS011;1003;48.002;7.788;2024-01-10T02:58:41;34.97;;;15.03;;
2001;SDS011;1003;48.002;7.788;2024-01-10T03:01:10;36.20;;;16.20;;
2001;SDS011;1003;48.002;7.788;2024-01-10T03:03:37;41.00;;;17.67;;
2001;SDS011;1003;48.002;7.788;2024-01-10T03:06:04;44.47;;;17.90;;
2001;SDS011;1003;48.002;7.788;2024-01-10T03:08:31;41.60;;;17.00;;
2001;SDS011;1003;48.002;7.788;2024-01-10T03:10:58;36.27;;;15.50;;
2001;SDS011;1003;48.002;7.788;2024-01-10T03:13:25;33.37;;;16.13;;
2001;SDS011;1003;48.002;7.788;2024-01-10T03:15:52;32.80;;;15.30;;
2001;SDS011;1003;48.002;7.788;2024-01-10T03:18:20;34.83;;;16.13;;
2001;SDS011;1003;48.002;7.788;2024-01-10T03:20:47;35.80;;;15.53;;
2001;SDS011;1003;48.002;7.788;2024-01-10T03:23:14;38.17;;;16.37;;
2001;SDS011;1003;48.002;7.788;2024-01-10T03:25:41;34.80;;;15.50;;
2001;SDS011;1003;48.002;7.788;2024-01-10T03:28:08;35.13;;;16.30;;
2001;SDS011;1003;48.002;7.788;2024-01-10T03:30:35;37.60;;;16.10;;
2001;SDS011;1003;48.002;7.788;2024-01-10T03:33:01;36.80;;;16.50;;
2001;SDS011;1003;48.002;7.788;2024-01-10T03:35:30;38.50;;;16.17;;
2001;SDS011;1003;48.002;7.788;2024-01-10T03:37:57;33.60;;;16.53;;
2001;SDS011;1003;48.002;7.788;2024-01-10T03:40:24;33.80;;;15.97;;
2001;SDS011;1003;48.002;7.788;2024-01-10T03:42:50;41.33;;;15.73;;
2001;SDS011;1003;48.002;7.788;2024-01-10T03:45:18;37.93;;;16.67;;
2001;SDS011;1003;48.002;7.788;2024-01-10T03:47:48;35.57;;;14.87;;
2001;SDS011;1003;48.002;7.788;2024-01-10T03:50:16;37.27;;;15.40;;
2001;SDS011;1003;48.002;7.788;2024-01-10T03:52:45;38.60;;;16.97;;
2001;SDS011;1003;48.002;7.788;2024-01-10T03:55:13;39.33;;;15.97;;
2001;SDS011;1003;48.002;7.788;2024-01-10T03:57:40;38.53;;;16.80;;
2001;SDS011;1003;48.002;7.788;2024-01-10T04:00:07;35.97;;;15.97;;
2001;SDS011;1003;48.002;7.788;2024-01-10T04:02:36;41.17;;;16.67;;
2001;SDS011;1003;48.002;7.788;2024-01-10T04:05:06;33.87;;;16.37;;
2001;SDS011;1003;48.002;7.788;2024-01-10T04:07:34;39.03;;;17.33;;
2001;SDS011;1003;48.002;7.788;2024-01-10T04:10:04;40.03;;;17.63;;
2001;SDS011;1003;48.002;7.788;2024-01-10T04:12:35;36.17;;;17.13;;
2001;SDS011;1003;48.002;7.788;2024-01-10T04:15:02;37.03;;;17.10;;
2001;SDS011;1003;48.002;7.788;2024-01-10T04:17:30;37.50;;;16.50;;
2001;SDS011;1003;48.002;7.788;2024-01-10T04:19:57;36.20;;;16.47;;
2001;SDS011;1003;48.002;7.788;2024-01-10T04:22:25;42.40;;;16.73;;
2001;SDS011;1003;48.002;7.788;2024-01-10T04:24:52;36.03;;;15.90;;
2001;SDS011;1003;48.002;7.788;2024-01-10T04:27:20;35.63;;;15.87;;
2001;SDS011;1003;48.002;7.788;2024-01-10T04:29:47;34.83;;;15.23;;
2001;SDS011;1003;48.002;7.788;2024-01-10T04:32:14;38.83;;;15.70;;
2001;SDS011;1003;48.002;7.788;2024-01-10T04:34:41;35.13;;;15.27;;
2001;SDS011;1003;48.002;7.788;2024-01-10T04:37:08;40.13;;;17.03;;
2001;SDS011;1003;48.002;7.788;2024-01-10T04:39:35;32.17;;;15.00;;
2001;SDS011;1003;48.002;7.788;2024-01-10T04:42:03;37.43;;;16.13;;
2001;SDS011;1003;48.002;7.788;2024-01-10T04:44:32;39.73;;;16.17;;
2001;SDS011;1003;48.002;7.788;2024-01-10T04:46:59;36.60;;;15.67;;
2001;SDS011;1003;48.002;7.788;2024-01-10T04:49:26;37.37;;;15.33;;
2001;SDS011;1003;48.002;7.788;2024-01-10T04:51:53;38.80;;;15.80;;
2001;SDS011;1003;48.002;7.788;2024-01-10T04:54:20;37.97;;;16.10;;
2001;SDS011;1003;48.002;7.788;2024-01-10T04:56:47;38.97;;;16.73;;
2001;SDS011;1003;48.002;7.788;2024-01-10T04:59:14;35.77;;;14.57;;
2001;SDS011;1003;48.002;7.788;2024-01-10T05:01:42;36.33;;;15.97;;
2001;SDS011;1003;48.002;7.788;2024-01-10T05:04:09;39.57;;;17.43;;
2001;SDS011;1003;48.002;7.788;2024-01-10T05:06:36;41.50;;;16.47;;
2001;SDS011;1003;48.002;7.788;2024-01-10T05:09:03;33.73;;;15.33;;
2001;SDS011;1003;48.002;7.788;2024-01-10T05:11:31;39.20;;;17.17;;
2001;SDS011;1003;48.002;7.788;2024-01-10T05:14:00;36.00;;;16.47;;
2001;SDS011;1003;48.002;7.788;2024-01-10T05:16:27;37.60;;;16.47;;
2001;SDS011;1003;48.002;7.788;2024-01-10T05:18:56;36.10;;;16.83;;
2001;SDS011;1003;48.002;7.788;2024-01-10T05:21:27;39.20;;;16.47;;
2001;SDS011;1003;48.002;7.788;2024-01-10T05:23:55;34.67;;;16.33;;
2001;SDS011;1003;48.002;7.788;2024-01-10T05:26:22;39.13;;;17.37;;
2001;SDS011;1003;48.002;7.788;2024-01-10T05:28:49;49.17;;;18.93;;
2001;SDS011;1003;48.002;7.788;2024-01-10T05:31:16;50.13;;;20.73;;
2001;SDS011;1003;48.002;7.788;2024-01-10T05:33:43;44.63;;;18.60;;
2001;SDS011;1003;48.002;7.788;2024-01-10T05:36:11;38.83;;;17.63;;
2001;SDS011;1003;48.002;7.788;2024-01-10T05:38:38;42.20;;;17.33;;
2001;SDS011;1003;48.002;7.788;2024-01-10T05:41:06;36.53;;;15.83;;
2001;SDS011;1003;48.002;7.788;2024-01-10T05:43:33;42.90;;;17.17;;
2001;SDS011;1003;48.002;7.788;2024-01-10T05:46:00;37.43;;;16.27;;
2001;SDS011;1003;48.002;7.788;2024-01-10T05:48:29;39.93;;;17.27;;
2001;SDS011;1003;48.002;7.788;2024-01-10T05:50:57;42.80;;;16.73;;
2001;SDS011;1003;48.002;7.788;2024-01-10T05:53:25;39.17;;;17.53;;
2001;SDS011;1003;48.002;7.788;2024-01-10T05:55:52;49.83;;;20.27;;
2001;SDS011;1003;48.002;7.788;2024-01-10T05:58:19;39.53;;;18.17;;
2001;SDS011;1003;48.002;7.788;2024-01-10T06:00:46;45.40;;;19.33;;
2001;SDS011;1003;48.002;7.788;2024-01-10T06:03:13;44.97;;;21.87;;
2001;SDS011;1003;48.002;7.788;2024-01-10T06:05:40;41.87;;;17.50;;
2001;SDS011;1003;48.002;7.788;2024-01-10T06:08:07;36.67;;;17.27;;
2001;SDS011;1003;48.002;7.788;2024-01-10T06:10:36;41.93;;;16.80;;
2001;SDS011;1003;48.002;7.788;2024-01-10T06:13:03;37.97;;;16.67;;
2001;SDS011;1003;48.002;7.788;2024-01-10T06:15:30;33.37;;;15.77;;
2001;SDS011;1003;48.002;7.788;2024-01-10T06:17:57;38.47;;;17.43;;
2001;SDS011;1003;48.002;7.788;2024-01-10T06:20:24;38.93;;;16.63;;
2001;SDS011;1003;48.002;7.788;2024-01-10T06:22:51;32.47;;;15.47;;
2001;SDS011;1003;48.002;7.788;2024-01-10T06:25:21;35.23;;;15.30;;
2001;SDS011;1003;48.002;7.788;2024-01-10T06:27:50;33.90;;;15.87;;
2001;SDS011;1003;48.002;7.788;2024-01-10T06:30:16;36.97;;;15.77;;
2001;SDS011;1003;48.002;7.788;2024-01-10T06:32:43;34.50;;;15.27;;
2001;SDS011;1003;48.002;7.788;2024-01-10T06:35:10;36.83;;;16.13;;
2001;SDS011;1003;48.002;7.788;2024-01-10T06:37:37;33.40;;;15.90;;
2001;SDS011;1003;48.002;7.788;2024-01-10T06:40:05;34.43;;;16.53;;
2001;SDS011;1003;48.002;7.788;2024-01-10T06:42:33;37.47;;;16.67;;
2001;SDS011;1003;48.002;7.788;2024-01-10T06:45:02;41.43;;;16.50;;
2001;SDS011;1003;48.002;7.788;2024-01-10T06:47:32;40.93;;;16.13;;
2001;SDS011;1003;48.002;7.788;2024-01-10T06:49:59;37.17;;;16.43;;
2001;SDS011;1003;48.002;7.788;2024-01-10T06:52:25;40.53;;;17.00;;
2001;SDS011;1003;48.002;7.788;2024-01-10T06:54:52;41.50;;;16.70;;
2001;SDS011;1003;48.002;7.788;2024-01-10T06:57:19;37.50;;;16.97;;
2001;SDS011;1003;48.002;7.788;2024-01-10T06:59:46;37.63;;;16.57;;
2001;SDS011;1003;48.002;7.788;2024-01-10T07:02:14;41.70;;;18.00;;
2001;SDS011;1003;48.002;7.788;2024-01-10T07:04:42;37.57;;;16.93;;
2001;SDS011;1003;48.002;7.788;2024-01-10T07:07:09;37.37;;;16.27;;
2001;SDS011;1003;48.002;7.788;2024-01-10T07:09:37;40.80;;;16.63;;
2001;SDS011;1003;48.002;7.788;2024-01-10T07:12:06;41.13;;;17.13;;
2001;SDS011;1003;48.002;7.788;2024-01-10T07:14:33;43.87;;;17.40;;
2001;SDS011;1003;48.002;7.788;2024-01-10T07:17:00;40.97;;;16.83;;
2001;SDS011;1003;48.002;7.788;2024-01-10T07:19:28;43.67;;;17.87;;
2001;SDS011;1003;48.002;7.788;2024-01-10T07:21:56;41.33;;;17.07;;
2001;SDS011;1003;48.002;7.788;2024-01-10T07:24:23;44.43;;;18.37;;
2001;SDS011;1003;48.002;7.788;2024-01-10T07:26:50;41.50;;;17.63;;
2001;SDS011;1003;48.002;7.788;2024-01-10T07:29:17;41.80;;;17.73;;
2001;SDS011;1003;48.002;7.788;2024-01-10T07:31:44;46.73;;;18.50;;
2001;SDS011;1003;48.002;7.788;2024-01-10T07:34:11;43.27;;;16.97;;
2001;SDS011;1003;48.002;7.788;2024-01-10T07:36:42;43.93;;;17.53;;
2001;SDS011;1003;48.002;7.788;2024-01-10T07:39:10;38.13;;;18.00;;
2001;SDS011;1003;48.002;7.788;2024-01-10T07:41:40;42.40;;;17.83;;
2001;SDS011;1003;48.002;7.788;2024-01-10T07:44:07;42.07;;;17.73;;
2001;SDS011;1003;48.002;7.788;2024-01-10T07:46:35;37.43;;;16.20;;
2001;SDS011;1003;48.002;7.788;2024-01-10T07:49:03;37.80;;;16.80;;
2001;SDS011;1003;48.002;7.788;2024-01-10T07:51:30;42.10;;;17.07;;
2001;SDS011;1003;48.002;7.788;2024-01-10T07:53:59;44.00;;;18.73;;
2001;SDS011;1003;48.002;7.788;2024-01-10T07:56:26;48.63;;;19.57;;
2001;SDS011;1003;48.002;7.788;2024-01-10T07:58:52;45.70;;;18.37;;
2001;SDS011;1003;48.002;7.788;2024-01-10T08:01:22;48.03;;;19.17;;
2001;SDS011;1003;48.002;7.788;2024-01-10T08:03:50;47.13;;;18.13;;
2001;SDS011;1003;48.002;7.788;2024-01-10T08:06:17;42.73;;;16.83;;
2001;SDS011;1003;48.002;7.788;2024-01-10T08:08:44;43.50;;;17.67;;
2001;SDS011;1003;48.002;7.788;2024-01-10T08:11:12;42.77;;;18.27;;
2001;SDS011;1003;48.002;7.788;2024-01-10T08:13:39;43.87;;;18.67;;
2001;SDS011;1003;48.002;7.788;2024-01-10T08:16:06;47.53;;;19.20;;
2001;SDS011;1003;48.002;7.788;2024-01-10T08:18:34;41.03;;;17.03;;
2001;SDS011;1003;48.002;7.788;2024-01-10T08:21:01;49.50;;;18.87;;
2001;SDS011;1003;48.002;7.788;2024-01-10T08:23:29;41.63;;;17.57;;
2001;SDS011;1003;48.002;7.788;2024-01-10T08:25:56;45.53;;;18.00;;
2001;SDS011;1003;48.002;7.788;2024-01-10T08:28:24;44.23;;;19.20;;
2001;SDS011;1003;48.002;7.788;2024-01-10T08:30:52;41.60;;;16.80;;
2001;SDS011;1003;48.002;7.788;2024-01-10T08:33:19;42.13;;;17.67;;
2001;SDS011;1003;48.002;7.788;2024-01-10T08:35:46;41.17;;;17.37;;
2001;SDS011;1003;48.002;7.788;2024-01-10T08:38:13;41.97;;;18.63;;
2001;SDS011;1003;48.002;7.788;2024-01-10T08:40:40;45.37;;;18.00;;
2001;SDS011;1003;48.002;7.788;2024-01-10T08:43:07;42.40;;;17.70;;
2001;SDS011;1003;48.002;7.788;2024-01-10T08:45:35;40.77;;;16.57;;
2001;SDS011;1003;48.002;7.788;2024-01-10T08:48:02;40.37;;;16.63;;
2001;SDS011;1003;48.002;7.788;2024-01-10T08:50:31;43.27;;;18.80;;
2001;SDS011;1003;48.002;7.788;2024-01-10T08:52:59;34.87;;;15.40;;
2001;SDS011;1003;48.002;7.788;2024-01-10T08:55:28;44.77;;;17.70;;
2001;SDS011;1003;48.002;7.788;2024-01-10T08:57:56;39.73;;;17.43;;
2001;SDS011;1003;48.002;7.788;2024-01-10T09:00:23;39.83;;;17.03;;
2001;SDS011;1003;48.002;7.788;2024-01-10T09:02:51;37.77;;;16.23;;
2001;SDS011;1003;48.002;7.788;2024-01-10T09:05:18;43.90;;;18.70;;
2001;SDS011;1003;48.002;7.788;2024-01-10T09:07:46;40.00;;;17.40;;
2001;SDS011;1003;48.002;7.788;2024-01-10T09:10:13;42.77;;;18.20;;
2001;SDS011;1003;48.002;7.788;2024-01-10T09:12:43;39.77;;;17.37;;
2001;SDS011;1003;48.002;7.788;2024-01-10T09:15:11;41.37;;;17.37;;
2001;SDS011;1003;48.002;7.788;2024-01-10T09:17:39;40.30;;;16.63;;
2001;SDS011;1003;48.002;7.788;2024-01-10T09:20:09;48.13;;;19.33;;
2001;SDS011;1003;48.002;7.788;2024-01-10T09:22:37;40.10;;;17.57;;
2001;SDS011;1003;48.002;7.788;2024-01-10T09:25:04;41.93;;;18.23;;
2001;SDS011;1003;48.002;7.788;2024-01-10T09:27:32;42.80;;;17.67;;
2001;SDS011;1003;48.002;7.788;2024-01-10T09:30:01;41.43;;;18.40;;
2001;SDS011;1003;48.002;7.788;2024-01-10T09:32:35;48.43;;;20.10;;
2001;SDS011;1003;48.002;7.788;2024-01-10T09:35:09;38.67;;;17.63;;
2001;SDS011;1003;48.002;7.788;2024-01-10T09:37:38;42.17;;;18.03;;
2001;SDS011;1003;48.002;7.788;2024-01-10T09:40:07;44.20;;;19.17;;
2001;SDS011;1003;48.002;7.788;2024-01-10T09:42:41;42.10;;;19.63;;
2001;SDS011;1003;48.002;7.788;2024-01-10T09:45:10;40.83;;;16.53;;
2001;SDS011;1003;48.002;7.788;2024-01-10T09:47:39;37.93;;;17.60;;
2001;SDS011;1003;48.002;7.788;2024-01-10T09:50:14;40.03;;;17.50;;
2001;SDS011;1003;48.002;7.788;2024-01-10T09:52:51;41.90;;;18.27;;
2001;SDS011;1003;48.002;7.788;2024-01-10T09:55:22;38.30;;;17.03;;
2001;SDS011;1003;48.002;7.788;2024-01-10T09:57:49;37.77;;;17.03;;
2001;SDS011;1003;48.002;7.788;2024-01-10T10:00:19;36.73;;;17.13;;
2001;SDS011;1003;48.002;7.788;2024-01-10T10:02:50;36.47;;;17.03;;
2001;SDS011;1003;48.002;7.788;2024-01-10T10:05:23;34.97;;;16.67;;
2001;SDS011;1003;48.002;7.788;2024-01-10T10:07:53;41.67;;;17.87;;
2001;SDS011;1003;48.002;7.788;2024-01-10T10:10:21;39.43;;;16.33;;
2001;SDS011;1003;48.002;7.788;2024-01-10T10:12:48;37.80;;;16.93;;
2001;SDS011;1003;48.002;7.788;2024-01-10T10:15:18;37.37;;;17.13;;
2001;SDS011;1003;48.002;7.788;2024-01-10T10:17:47;38.00;;;17.33;;
2001;SDS011;1003;48.002;7.788;2024-01-10T10:20:19;39.37;;;16.90;;
2001;SDS011;1003;48.002;7.788;2024-01-10T10:22:59;33.70;;;15.27;;
2001;SDS011;1003;48.002;7.788;2024-01-10T10:25:28;37.60;;;17.30;;
2001;SDS011;1003;48.002;7.788;2024-01-10T10:27:57;37.73;;;16.87;;
2001;SDS011;1003;48.002;7.788;2024-01-10T10:30:26;36.73;;;17.57;;
2001;SDS011;1003;48.002;7.788;2024-01-10T10:32:53;42.80;;;18.60;;
2001;SDS011;1003;48.002;7.788;2024-01-10T10:35:21;41.97;;;18.67;;
2001;SDS011;1003;48.002;7.788;2024-01-10T10:37:49;39.87;;;17.43;;
2001;SDS011;1003;48.002;7.788;2024-01-10T10:40:18;42.57;;;18.00;;
2001;SDS011;1003;48.002;7.788;2024-01-10T10:42:48;40.03;;;17.37;;
2001;SDS011;1003;48.002;7.788;2024-01-10T10:45:21;44.67;;;18.67;;
2001;SDS011;1003;48.002;7.788;2024-01-10T10:47:53;38.30;;;17.43;;
2001;SDS011;1003;48.002;7.788;2024-01-10T10:50:24;38.13;;;16.80;;
2001;SDS011;1003;48.002;7.788;2024-01-10T10:53:02;39.90;;;17.43;;
2001;SDS011;1003;48.002;7.788;2024-01-10T10:55:31;35.30;;;16.83;;
2001;SDS011;1003;48.002;7.788;2024-01-10T10:58:01;38.00;;;16.33;;
2001;SDS011;1003;48.002;7.788;2024-01-10T11:00:30;39.07;;;16.80;;
2001;SDS011;1003;48.002;7.788;2024-01-10T11:02:58;33.67;;;16.37;;
2001;SDS011;1003;48.002;7.788;2024-01-10T11:05:28;37.40;;;17.33;;
2001;SDS011;1003;48.002;7.788;2024-01-10T11:07:57;36.77;;;16.67;;
2001;SDS011;1003;48.002;7.788;2024-01-10T11:10:31;38.30;;;17.73;;
2001;SDS011;1003;48.002;7.788;2024-01-10T11:13:10;36.53;;;17.00;;
2001;SDS011;1003;48.002;7.788;2024-01-10T11:16:05;37.80;;;16.93;;
2001;SDS011;1003;48.002;7.788;2024-01-10T11:19:10;38.30;;;16.83;;
2001;SDS011;1003;48.002;7.788;2024-01-10T11:22:07;38.00;;;16.90;;
2001;SDS011;1003;48.002;7.788;2024-01-10T11:24:53;33.50;;;15.93;;
2001;SDS011;1003;48.002;7.788;2024-01-10T11:27:22;38.37;;;17.70;;
2001;SDS011;1003;48.002;7.788;2024-01-10T11:29:49;37.50;;;17.27;;
2001;SDS011;1003;48.002;7.788;2024-01-10T11:32:17;36.97;;;18.00;;
2001;SDS011;1003;48.002;7.788;2024-01-10T11:34:50;36.20;;;16.73;;
2001;SDS011;1003;48.002;7.788;2024-01-10T11:37:21;32.57;;;15.67;;
2001;SDS011;1003;48.002;7.788;2024-01-10T11:39:50;32.03;;;15.93;;
2001;SDS011;1003;48.002;7.788;2024-01-10T11:42:22;34.87;;;16.50;;
2001;SDS011;1003;48.002;7.788;2024-01-10T11:44:50;33.20;;;15.53;;
2001;SDS011;1003;48.002;7.788;2024-01-10T11:47:18;29.73;;;15.33;;
2001;SDS011;1003;48.002;7.788;2024-01-10T11:49:55;30.27;;;14.57;;
2001;SDS011;1003;48.002;7.788;2024-01-10T11:52:31;26.23;;;13.23;;
2001;SDS011;1003;48.002;7.788;2024-01-10T11:54:59;26.23;;;13.53;;
2001;SDS011;1003;48.002;7.788;2024-01-10T11:57:29;28.67;;;13.77;;
2001;SDS011;1003;48.002;7.788;2024-01-10T11:59:57;29.07;;;13.53;;
2001;SDS011;1003;48.002;7.788;2024-01-10T12:02:26;31.50;;;15.20;;
2001;SDS011;1003;48.002;7.788;2024-01-10T12:04:55;32.20;;;13.97;;
2001;SDS011;1003;48.002;7.788;2024-01-10T12:07:22;32.67;;;15.13;;
2001;SDS011;1003;48.002;7.788;2024-01-10T12:09:50;33.20;;;16.30;;
2001;SDS011;1003;48.002;7.788;2024-01-10T12:12:17;30.67;;;15.40;;
2001;SDS011;1003;48.002;7.788;2024-01-10T12:14:45;36.87;;;17.43;;
2001;SDS011;1003;48.002;7.788;2024-01-10T12:17:12;33.70;;;15.70;;
2001;SDS011;1003;48.002;7.788;2024-01-10T12:19:39;33.20;;;14.47;;
2001;SDS011;1003;48.002;7.788;2024-01-10T12:22:09;29.47;;;14.53;;
2001;SDS011;1003;48.002;7.788;2024-01-10T12:24:42;28.33;;;13.73;;
2001;SDS011;1003;48.002;7.788;2024-01-10T12:27:11;29.77;;;14.13;;
2001;SDS011;1003;48.002;7.788;2024-01-10T12:29:38;28.40;;;13.90;;
2001;SDS011;1003;48.002;7.788;2024-01-10T12:32:08;29.73;;;14.23;;
2001;SDS011;1003;48.002;7.788;2024-01-10T12:34:37;26.87;;;13.73;;
2001;SDS011;1003;48.002;7.788;2024-01-10T12:37:05;27.53;;;14.33;;
2001;SDS011;1003;48.002;7.788;2024-01-10T12:39:32;26.63;;;13.83;;
2001;SDS011;1003;48.002;7.788;2024-01-10T12:42:00;29.87;;;14.70;;
2001;SDS011;1003;48.002;7.788;2024-01-10T12:44:35;29.97;;;13.80;;
2001;SDS011;1003;48.002;7.788;2024-01-10T12:47:02;30.77;;;14.53;;
2001;SDS011;1003;48.002;7.788;2024-01-10T12:49:31;28.73;;;14.63;;
2001;SDS011;1003;48.002;7.788;2024-01-10T12:51:58;28.63;;;14.07;;
2001;SDS011;1003;48.002;7.788;2024-01-10T12:54:24;29.93;;;14.60;;
2001;SDS011;1003;48.002;7.788;2024-01-10T12:56:52;27.40;;;14.93;;
2001;SDS011;1003;48.002;7.788;2024-01-10T12:59:18;28.03;;;14.97;;
2001;SDS011;1003;48.002;7.788;2024-01-10T13:01:45;29.83;;;15.07;;
2001;SDS011;1003;48.002;7.788;2024-01-10T13:04:13;29.60;;;14.27;;
2001;SDS011;1003;48.002;7.788;2024-01-10T13:06:41;27.40;;;13.50;;
2001;SDS011;1003;48.002;7.788;2024-01-10T13:09:08;29.77;;;13.47;;
2001;SDS011;1003;48.002;7.788;2024-01-10T13:11:35;28.63;;;14.37;;
2001;SDS011;1003;48.002;7.788;2024-01-10T13:14:02;30.33;;;14.03;;
2001;SDS011;1003;48.002;7.788;2024-01-10T13:16:29;27.13;;;14.17;;
2001;SDS011;1003;48.002;7.788;2024-01-10T13:18:56;27.30;;;13.73;;
2001;SDS011;1003;48.002;7.788;2024-01-10T13:21:24;31.67;;;14.57;;
2001;SDS011;1003;48.002;7.788;2024-01-10T13:23:52;29.63;;;14.60;;
2001;SDS011;1003;48.002;7.788;2024-01-10T13:26:19;25.40;;;13.20;;
2001;SDS011;1003;48.002;7.788;2024-01-10T13:28:47;29.80;;;14.60;;
2001;SDS011;1003;48.002;7.788;2024-01-10T13:31:14;28.43;;;14.40;;
2001;SDS011;1003;48.002;7.788;2024-01-10T13:33:41;28.10;;;14.03;;
2001;SDS011;1003;48.002;7.788;2024-01-10T13:36:08;27.83;;;13.50;;
2001;SDS011;1003;48.002;7.788;2024-01-10T13:38:35;30.40;;;15.17;;
2001;SDS011;1003;48.002;7.788;2024-01-10T13:41:03;33.83;;;16.80;;
2001;SDS011;1003;48.002;7.788;2024-01-10T13:43:31;33.13;;;16.77;;
2001;SDS011;1003;48.002;7.788;2024-01-10T13:45:58;30.90;;;15.73;;
2001;SDS011;1003;48.002;7.788;2024-01-10T13:48:26;33.20;;;16.17;;
2001;SDS011;1003;48.002;7.788;2024-01-10T13:50:53;34.27;;;16.43;;
2001;SDS011;1003;48.002;7.788;2024-01-10T13:53:20;29.50;;;13.93;;
2001;SDS011;1003;48.002;7.788;2024-01-10T13:55:48;26.93;;;13.87;;
2001;SDS011;1003;48.002;7.788;2024-01-10T13:58:16;26.77;;;13.67;;
2001;SDS011;1003;48.002;7.788;2024-01-10T14:00:43;28.70;;;15.10;;
2001;SDS011;1003;48.002;7.788;2024-01-10T14:03:11;30.17;;;14.43;;
2001;SDS011;1003;48.002;7.788;2024-01-10T14:05:39;26.50;;;13.13;;
2001;SDS011;1003;48.002;7.788;2024-01-10T14:08:06;24.07;;;13.10;;
2001;SDS011;1003;48.002;7.788;2024-01-10T14:10:34;25.50;;;12.93;;
2001;SDS011;1003;48.002;7.788;2024-01-10T14:13:01;25.60;;;13.03;;
2001;SDS011;1003;48.002;7.788;2024-01-10T14:15:29;24.50;;;13.00;;
2001;SDS011;1003;48.002;7.788;2024-01-10T14:17:57;24.47;;;12.57;;
2001;SDS011;1003;48.002;7.788;2024-01-10T14:20:24;25.00;;;13.13;;
2001;SDS011;1003;48.002;7.788;2024-01-10T14:22:51;23.77;;;12.20;;
2001;SDS011;1003;48.002;7.788;2024-01-10T14:25:18;25.70;;;13.10;;
2001;SDS011;1003;48.002;7.788;2024-01-10T14:27:45;30.93;;;14.53;;
2001;SDS011;1003;48.002;7.788;2024-01-10T14:30:13;23.73;;;13.83;;
2001;SDS011;1003;48.002;7.788;2024-01-10T14:32:42;25.07;;;13.57;;
2001;SDS011;1003;48.002;7.788;2024-01-10T14:35:12;25.53;;;12.87;;
2001;SDS011;1003;48.002;7.788;2024-01-10T14:37:39;24.93;;;12.33;;
2001;SDS011;1003;48.002;7.788;2024-01-10T14:40:06;23.23;;;12.60;;
2001;SDS011;1003;48.002;7.788;2024-01-10T14:42:35;22.67;;;12.13;;
2001;SDS011;1003;48.002;7.788;2024-01-10T14:45:03;23.37;;;12.40;;
2001;SDS011;1003;48.002;7.788;2024-01-10T14:47:30;22.47;;;12.20;;
2001;SDS011;1003;48.002;7.788;2024-01-10T14:49:59;24.67;;;13.00;;
2001;SDS011;1003;48.002;7.788;2024-01-10T14:52:25;24.20;;;12.10;;
2001;SDS011;1003;48.002;7.788;2024-01-10T14:54:52;24.07;;;12.30;;